Weather reports worldwide

Advertisment
Andujar, Spain (8347): temperature & dewpoint: 03.12.2019 21:00:00 - 09.12.2019 21:00:00 (CET)Andujar, Spain (8347): wind speed & gusts: 03.12.2019 21:00:00 - 09.12.2019 21:00:00 (CET)Andujar, Spain (8347): wind direction: 03.12.2019 21:00:00 - 09.12.2019 21:00:00 (CET)Andujar, Spain (8347): reduced air pressure: 03.12.2019 21:00:00 - 09.12.2019 21:00:00 (CET)Andujar, Spain (8347): precipitation: 03.12.2019 21:00:00 - 09.12.2019 21:00:00 (CET)
Date & Time tt [°C] td [°C] ff [km/h] ff [kn] fx [km/h] fx [kn] dd ppp [hPa] rr [mm]
09.12.2019 21:00:00 9,1 8,8 0 0 0 0 N 1029,1 0,0
09.12.2019 20:00:00 9,4 8,8 0 0 0 0 N 1028,8 0,0
09.12.2019 19:00:00 10,6 9,2 0 0 5 3 N 1028,6 -
09.12.2019 18:00:00 12,2 8,8 1 1 6 3 SW 1028,2 0,0
09.12.2019 17:00:00 16,9 7,3 3 2 6 3 SSE 1027,7 0,0
09.12.2019 16:00:00 16,1 7,0 1 1 7 4 ENE 1027,7 0,0
09.12.2019 15:00:00 17,2 7,3 1 1 8 5 W 1027,8 0,0
09.12.2019 14:00:00 16,7 8,4 2 1 8 4 W 1028,6 0,0
09.12.2019 13:00:00 15,3 6,8 1 1 12 6 E 1029,5 -
09.12.2019 12:00:00 14,9 8,7 3 1 8 4 ESE 1030,0 0,0
09.12.2019 11:00:00 13,0 9,4 0 0 5 3 N 1030,4 0,0
09.12.2019 10:00:00 12,0 10,0 0 0 6 3 ESE 1029,9 0,0
09.12.2019 09:00:00 10,1 9,7 0 0 2 1 N 1029,3 0,0
09.12.2019 08:00:00 10,2 9,4 1 0 9 5 E 1028,8 0,0
09.12.2019 07:00:00 10,0 9,7 0 0 5 3 ESE 1028,6 -
09.12.2019 06:00:00 10,0 9,7 0 0 6 3 E 1028,0 0,0
09.12.2019 05:00:00 9,6 9,3 0 0 1 1 N 1027,8 0,0
09.12.2019 04:00:00 9,6 9,3 0 0 3 2 ENE 1027,7 0,0
09.12.2019 03:00:00 8,8 8,5 0 0 4 2 N 1028,0 0,0
09.12.2019 02:00:00 8,8 8,4 0 0 2 1 N 1027,8 0,0
09.12.2019 01:00:00 9,6 9,0 0 0 3 2 SSW 1027,8 -
09.12.2019 00:00:00 11,4 9,3 0 0 9 5 NNW 1027,4 0,0
08.12.2019 23:00:00 10,7 9,3 0 0 5 3 SSE 1027,2 0,0
08.12.2019 22:00:00 9,8 8,4 3 2 7 4 W 1026,9 0,0
08.12.2019 21:00:00 11,6 8,7 3 1 7 4 NW 1026,3 0,0
08.12.2019 20:00:00 11,9 8,5 5 3 8 5 NW 1026,4 0,0
08.12.2019 19:00:00 12,9 8,1 5 3 7 4 NW 1026,0 -
08.12.2019 18:00:00 12,8 8,1 5 3 6 3 W 1025,6 0,0
08.12.2019 17:00:00 13,9 7,0 5 3 13 7 W 1025,1 0,0
08.12.2019 16:00:00 14,8 6,8 10 5 13 7 WNW 1024,8 0,0
08.12.2019 15:00:00 15,5 5,9 4 2 9 5 NNW 1024,8 0,0
08.12.2019 14:00:00 14,1 5,5 1 0 9 5 SSW 1025,4 0,0
08.12.2019 13:00:00 11,8 5,0 3 1 10 5 ESE 1026,6 -
08.12.2019 12:00:00 10,2 5,3 3 2 12 7 E 1027,7 0,0
08.12.2019 11:00:00 7,2 7,0 1 1 6 3 SSE 1028,4 0,0
08.12.2019 10:00:00 4,3 4,1 1 0 4 2 NNW 1028,2 0,0
08.12.2019 09:00:00 2,1 1,9 0 0 6 4 N 1027,8 0,0
08.12.2019 08:00:00 2,0 1,9 0 0 3 2 N 1027,5 0,0
08.12.2019 07:00:00 1,7 1,5 0 0 4 2 E 1026,7 -
08.12.2019 06:00:00 2,6 2,5 0 0 2 1 N 1026,4 0,0
08.12.2019 05:00:00 2,7 2,5 0 0 0 0 N 1026,5 0,0
08.12.2019 04:00:00 3,2 3,0 0 0 1 1 N 1026,4 0,0
08.12.2019 03:00:00 4,0 3,8 0 0 0 0 N 1026,6 0,0
08.12.2019 02:00:00 4,3 4,1 0 0 4 2 N 1026,5 0,0
08.12.2019 01:00:00 5,0 4,8 0 0 1 0 N 1026,3 -
08.12.2019 00:00:00 5,5 5,3 0 0 1 0 N 1026,3 0,0
07.12.2019 23:00:00 6,6 6,4 0 0 5 3 E 1025,7 0,0
07.12.2019 22:00:00 6,9 6,5 0 0 5 3 N 1025,4 0,0
07.12.2019 21:00:00 7,5 7,0 4 2 6 3 E 1024,9 0,0
07.12.2019 20:00:00 8,5 7,3 0 0 4 2 N 1024,2 0,0
07.12.2019 19:00:00 10,4 7,8 5 3 7 4 W 1023,4 -
07.12.2019 18:00:00 11,9 6,5 0 0 5 3 SSE 1022,7 0,0
07.12.2019 17:00:00 16,7 4,1 0 0 5 3 S 1021,9 0,0
07.12.2019 16:00:00 17,6 4,1 3 2 10 6 SSE 1021,5 0,0
07.12.2019 15:00:00 17,1 4,1 4 2 11 6 SE 1021,6 0,0
07.12.2019 14:00:00 15,7 5,3 4 2 11 6 E 1022,0 0,0
07.12.2019 13:00:00 13,9 5,3 6 3 14 8 ESE 1023,2 -
07.12.2019 12:00:00 12,3 5,5 6 3 14 8 ESE 1024,1 0,0
07.12.2019 11:00:00 10,1 9,8 6 3 11 6 ESE 1024,3 0,0
07.12.2019 10:00:00 6,0 5,8 0 0 6 3 SSW 1024,4 0,0
07.12.2019 09:00:00 4,5 4,3 3 1 5 3 ESE 1023,9 0,0
07.12.2019 08:00:00 3,7 3,6 0 0 6 4 N 1023,7 0,0
07.12.2019 07:00:00 3,5 3,4 2 1 5 3 E 1023,1 -
07.12.2019 06:00:00 3,9 3,8 0 0 0 0 N 1022,8 0,0
07.12.2019 05:00:00 5,4 5,3 0 0 0 0 N 1022,7 0,0
07.12.2019 04:00:00 5,6 5,5 0 0 5 3 WNW 1022,7 0,0
07.12.2019 03:00:00 5,6 5,5 0 0 3 1 N 1022,4 0,0
07.12.2019 02:00:00 7,0 6,7 0 0 4 2 ESE 1021,8 0,0
07.12.2019 01:00:00 8,3 7,4 1 0 9 5 SE 1021,6 -
07.12.2019 00:00:00 8,6 8,3 0 0 0 0 N 1021,7 0,0
06.12.2019 23:00:00 9,0 8,7 0 0 1 1 ESE 1021,2 0,0
06.12.2019 22:00:00 8,3 7,7 0 0 5 3 N 1021,0 0,0
06.12.2019 21:00:00 9,6 8,4 4 2 6 3 ESE 1020,6 0,0
06.12.2019 20:00:00 10,2 8,1 1 1 4 2 SE 1020,2 0,0
06.12.2019 19:00:00 12,3 7,4 0 0 5 3 S 1019,3 -
06.12.2019 18:00:00 13,5 6,5 1 0 11 6 E 1018,6 0,0
06.12.2019 17:00:00 17,5 5,8 6 3 26 14 ENE 1017,8 0,0
06.12.2019 16:00:00 18,4 6,2 6 4 21 11 E 1017,5 0,0
06.12.2019 15:00:00 18,5 6,4 9 5 26 14 E 1017,4 0,0
06.12.2019 14:00:00 17,7 5,9 11 6 28 15 E 1018,2 0,0
06.12.2019 13:00:00 17,0 6,8 13 7 27 14 E 1019,2 -
06.12.2019 12:00:00 15,7 6,4 9 5 25 13 E 1019,8 0,0
06.12.2019 11:00:00 13,6 7,6 13 7 22 12 E 1020,8 0,0
06.12.2019 10:00:00 11,4 7,6 5 3 10 5 ESE 1020,4 0,0
06.12.2019 09:00:00 8,4 7,0 2 1 9 5 E 1020,2 0,0
06.12.2019 08:00:00 7,7 6,4 0 0 11 6 SE 1019,6 0,0
06.12.2019 07:00:00 8,3 6,1 5 3 19 10 E 1018,9 -
06.12.2019 06:00:00 8,3 5,8 5 3 12 7 ESE 1018,4 0,0
06.12.2019 05:00:00 7,4 5,9 3 2 12 6 E 1018,6 0,0
06.12.2019 04:00:00 8,7 5,5 9 5 23 12 E 1018,4 0,0
06.12.2019 03:00:00 9,2 5,6 8 4 16 9 ESE 1017,6 0,0
06.12.2019 02:00:00 8,6 5,9 3 2 10 6 SE 1017,9 0,0
06.12.2019 01:00:00 9,0 5,9 5 3 11 6 ESE 1018,3 -
06.12.2019 00:00:00 9,2 5,9 3 2 14 7 SE 1018,4 0,0
05.12.2019 23:00:00 10,7 5,8 10 5 19 10 ESE 1017,6 0,0
05.12.2019 22:00:00 10,4 6,1 7 4 13 7 E 1017,3 0,0
05.12.2019 21:00:00 10,5 6,8 7 4 14 8 ESE 1016,9 0,0
05.12.2019 20:00:00 11,6 7,3 5 3 10 5 ESE 1016,2 0,0
05.12.2019 19:00:00 11,5 7,4 0 0 6 3 SE 1015,6 -
05.12.2019 18:00:00 13,5 5,6 3 2 14 7 E 1014,8 0,0
05.12.2019 17:00:00 15,6 5,1 6 3 16 9 ENE 1013,8 0,0
05.12.2019 16:00:00 16,6 5,8 5 3 20 11 E 1013,4 0,0
05.12.2019 15:00:00 15,5 5,5 13 7 23 12 E 1013,6 0,0
05.12.2019 14:00:00 14,8 5,0 9 5 24 13 E 1013,8 0,0
05.12.2019 13:00:00 14,3 5,6 16 9 29 16 E 1014,3 -
05.12.2019 12:00:00 14,3 6,1 9 5 22 12 E 1014,7 0,0
05.12.2019 11:00:00 12,3 8,4 8 5 14 8 ESE 1014,7 0,0
05.12.2019 10:00:00 10,2 10,0 4 2 8 4 E 1014,4 0,0
05.12.2019 09:00:00 8,3 8,1 0 0 5 3 E 1014,1 0,0
05.12.2019 08:00:00 8,8 8,7 0 0 5 3 N 1013,5 0,0
05.12.2019 07:00:00 9,5 9,2 5 3 9 5 SSE 1012,4 -
05.12.2019 06:00:00 9,1 8,4 0 0 0 0 N 1012,1 0,0
05.12.2019 05:00:00 9,5 8,8 0 0 0 0 N 1011,9 0,0
05.12.2019 04:00:00 9,9 8,9 0 0 4 2 N 1012,1 0,0
05.12.2019 03:00:00 10,0 9,6 0 0 8 4 N 1011,6 0,0
05.12.2019 02:00:00 10,1 9,8 0 0 0 0 N 1011,3 0,0
05.12.2019 01:00:00 10,3 9,7 0 0 1 1 SE 1011,1 -
05.12.2019 00:00:00 10,6 9,7 0 0 0 0 N 1010,7 0,0
04.12.2019 23:00:00 10,9 9,4 0 0 10 5 N 1010,2 0,0
04.12.2019 22:00:00 10,9 8,8 0 0 4 2 N 1010,0 0,0
04.12.2019 21:00:00 11,2 8,9 0 0 6 3 SE 1009,7 0,0
04.12.2019 20:00:00 11,5 8,5 0 0 6 4 N 1009,3 0,0
04.12.2019 19:00:00 11,8 7,8 5 3 9 5 SW 1008,6 -
04.12.2019 18:00:00 12,3 6,4 7 4 14 8 WSW 1008,0 0,0
04.12.2019 17:00:00 14,0 5,3 5 3 16 9 W 1007,7 0,0
04.12.2019 16:00:00 13,4 5,0 13 7 18 10 W 1007,3 0,0
04.12.2019 15:00:00 13,9 5,8 13 7 19 11 W 1007,2 0,0
04.12.2019 14:00:00 14,1 5,8 5 3 12 6 WNW 1007,7 0,0
04.12.2019 13:00:00 13,7 4,3 0 0 0 0 N 1008,5 -
04.12.2019 12:00:00 11,2 6,1 0 0 4 2 N 1009,5 0,0
04.12.2019 11:00:00 9,7 6,4 0 0 3 2 SSE 1010,3 0,0
04.12.2019 10:00:00 6,0 5,8 0 0 9 5 NNE 1010,4 0,0
04.12.2019 09:00:00 4,9 4,8 1 1 6 4 ESE 1010,6 0,0
04.12.2019 08:00:00 4,7 4,6 0 0 0 0 N 1010,2 0,0
04.12.2019 07:00:00 4,4 4,3 0 0 3 1 N 1010,3 -
04.12.2019 06:00:00 4,4 4,3 1 0 6 3 ESE 1010,0 0,0
04.12.2019 05:00:00 5,3 5,1 0 0 0 0 N 1010,2 0,0
04.12.2019 04:00:00 5,7 5,5 0 0 4 2 N 1010,5 0,0
04.12.2019 03:00:00 6,7 6,1 0 0 4 2 SSW 1010,9 0,0
04.12.2019 02:00:00 7,6 6,4 0 0 3 2 ESE 1011,1 0,0
04.12.2019 01:00:00 7,4 6,4 0 0 5 3 SSW 1011,5 -
04.12.2019 00:00:00 8,5 6,2 0 0 8 5 E 1011,6 0,0
03.12.2019 23:00:00 10,2 6,5 7 4 11 6 E 1011,4 0,0
03.12.2019 22:00:00 10,4 7,3 3 2 8 5 ESE 1011,4 0,0
03.12.2019 21:00:00 10,5 7,1 4 2 10 5 E 1011,2 0,0

tt = temperature
td = dewpoint
ff = wind speed
fx = gusts
dd = wind direction
ppp = reduced air pressure
rr = precipitation

Next stations